Time;durP1;ratioP1;P1;durP2;ratioP2;P2;SDS_P1;SDS_P2;PMS_P1;PMS_P2;Temp;Humidity;BMP_temperature;BMP_pressure;BME280_temperature;BME280_humidity;BME280_pressure;Samples;Min_cycle;Max_cycle;Signal;HPM_P1;HPM_P2
2022/12/18 00:01:21;;;;;;;69.53;26.83;;;-2.50;99.90;;;;;;5019738;28;20037;-74
2022/12/18 00:03:50;;;;;;;72.28;26.40;;;-2.70;99.90;;;;;;5025030;28;20551;-73
2022/12/18 00:06:17;;;;;;;67.03;25.98;;;-2.50;99.90;;;;;;5022071;28;20600;-74
2022/12/18 00:08:43;;;;;;;68.82;25.63;;;-1.60;99.90;;;;;;5004874;28;20081;-74
2022/12/18 00:11:12;;;;;;;67.05;25.98;;;-2.50;99.90;;;;;;5001487;28;20690;-73
2022/12/18 00:13:38;;;;;;;69.38;25.63;;;-2.50;99.90;;;;;;5004654;28;20052;-73
2022/12/18 00:16:07;;;;;;;64.97;25.92;;;-2.50;99.90;;;;;;5023964;28;20041;-73
2022/12/18 00:18:33;;;;;;;65.68;26.08;;;-2.50;99.90;;;;;;5023370;28;20037;-72
2022/12/18 00:21:01;;;;;;;70.72;26.33;;;-2.60;99.90;;;;;;4996768;28;20186;-73
2022/12/18 00:23:28;;;;;;;64.80;24.77;;;-2.60;99.90;;;;;;5008460;28;20034;-72
2022/12/18 00:25:53;;;;;;;64.65;25.33;;;-2.60;99.90;;;;;;5000596;28;20050;-73
2022/12/18 00:28:19;;;;;;;71.40;27.20;;;-2.60;99.90;;;;;;5024793;28;20398;-72
2022/12/18 00:30:45;;;;;;;69.68;27.05;;;-2.60;99.90;;;;;;5023091;28;20040;-73
2022/12/18 00:33:10;;;;;;;63.30;25.55;;;-2.60;99.90;;;;;;5021631;28;20037;-73
2022/12/18 00:35:36;;;;;;;69.30;26.60;;;-2.00;99.90;;;;;;5011450;28;20648;-74
2022/12/18 00:38:02;;;;;;;68.13;27.70;;;-2.60;99.90;;;;;;5025089;28;20052;-72
2022/12/18 00:40:28;;;;;;;66.80;26.63;;;-2.60;99.90;;;;;;4993768;28;20098;-73
2022/12/18 00:42:56;;;;;;;70.00;26.73;;;-2.80;99.90;;;;;;5009761;28;20072;-73
2022/12/18 00:45:27;;;;;;;70.28;27.00;;;-2.70;99.90;;;;;;5026571;28;20039;-74
2022/12/18 00:47:54;;;;;;;64.22;24.30;;;-1.90;99.90;;;;;;5027602;28;20045;-73
2022/12/18 00:50:20;;;;;;;64.88;26.75;;;-2.80;99.90;;;;;;5044566;28;20061;-74
2022/12/18 00:52:46;;;;;;;71.85;27.17;;;-2.80;99.90;;;;;;5026696;28;20554;-72
2022/12/18 00:55:12;;;;;;;67.20;26.00;;;-2.80;99.90;;;;;;5027271;28;20104;-73
2022/12/18 00:57:38;;;;;;;72.25;26.55;;;-2.30;99.90;;;;;;5024388;28;20053;-73
2022/12/18 01:00:06;;;;;;;73.40;26.52;;;-2.90;99.90;;;;;;5028789;28;20041;-72
2022/12/18 01:02:31;;;;;;;66.22;25.90;;;-2.80;99.90;;;;;;5009089;28;20049;-74
2022/12/18 01:04:57;;;;;;;64.38;25.48;;;-2.30;99.90;;;;;;5007209;28;20056;-73
2022/12/18 01:07:23;;;;;;;66.20;25.38;;;-2.80;99.90;;;;;;5011636;28;20041;-73
2022/12/18 01:09:48;;;;;;;67.70;26.58;;;-2.90;99.90;;;;;;5020226;28;20522;-74
2022/12/18 01:12:14;;;;;;;66.32;25.95;;;-2.90;99.90;;;;;;5004586;28;20037;-74
2022/12/18 01:14:40;;;;;;;70.45;26.27;;;-2.90;99.90;;;;;;4996799;28;20067;-74
2022/12/18 01:17:06;;;;;;;75.82;28.25;;;-2.90;99.90;;;;;;5007763;28;20043;-73
2022/12/18 01:19:32;;;;;;;76.88;28.15;;;-2.90;99.90;;;;;;5010836;28;20029;-73
2022/12/18 01:21:58;;;;;;;76.45;29.00;;;-3.80;99.90;;;;;;5010111;28;20675;-74
2022/12/18 01:24:24;;;;;;;76.10;27.25;;;-2.90;99.90;;;;;;5026377;28;20040;-74
2022/12/18 01:26:50;;;;;;;78.47;28.63;;;-2.50;99.90;;;;;;5047801;28;20647;-73
2022/12/18 01:29:16;;;;;;;74.43;26.27;;;-2.90;99.90;;;;;;5029806;28;20060;-74
2022/12/18 01:31:41;;;;;;;71.43;27.17;;;-2.20;99.90;;;;;;5027906;28;20061;-74
2022/12/18 01:34:08;;;;;;;72.68;26.35;;;-3.00;99.90;;;;;;5012403;28;20280;-72
2022/12/18 01:36:36;;;;;;;70.25;26.02;;;-3.40;99.90;;;;;;5030847;28;20648;-73
2022/12/18 01:39:13;;;;;;;70.85;26.98;;;-3.00;99.90;;;;;;5029997;28;20502;-72
2022/12/18 01:44:45;;;;;;;65.47;25.08;;;-3.00;99.90;;;;;;5024626;28;20545;-73
2022/12/18 01:47:25;;;;;;;61.45;25.55;;;-3.10;99.90;;;;;;5008908;28;20036;-73
2022/12/18 01:49:51;;;;;;;73.40;26.77;;;-3.20;99.90;;;;;;5012374;28;20080;-73
2022/12/18 01:52:18;;;;;;;72.38;26.05;;;-4.90;99.90;;;;;;5012268;28;20125;-73
2022/12/18 01:54:45;;;;;;;66.13;26.45;;;-2.60;99.90;;;;;;5028636;28;20037;-73
2022/12/18 01:57:11;;;;;;;73.80;28.05;;;-3.20;99.90;;;;;;5028792;28;20060;-74
2022/12/18 01:59:45;;;;;;;74.40;27.23;;;-3.00;99.90;;;;;;5016053;28;20060;-74
2022/12/18 02:02:11;;;;;;;68.90;27.65;;;-3.10;99.90;;;;;;5029081;28;20045;-74
2022/12/18 02:04:40;;;;;;;70.75;26.92;;;-3.40;99.90;;;;;;5045875;28;20121;-72
2022/12/18 02:07:21;;;;;;;70.85;27.90;;;-3.40;99.90;;;;;;5027579;28;20044;-73
2022/12/18 02:09:54;;;;;;;65.63;26.00;;;-3.40;99.90;;;;;;5028373;28;20037;-73
2022/12/18 02:12:24;;;;;;;69.90;26.35;;;-3.50;99.90;;;;;;5017610;28;20049;-72
2022/12/18 02:15:02;;;;;;;70.90;26.20;;;-3.50;99.90;;;;;;5029335;28;20057;-73
2022/12/18 02:17:51;;;;;;;65.00;25.67;;;-3.80;99.90;;;;;;5024340;28;20099;-73
2022/12/18 02:20:26;;;;;;;72.03;25.15;;;-3.60;99.90;;;;;;5011138;28;20033;-74
2022/12/18 02:23:12;;;;;;;66.38;26.17;;;-3.60;99.90;;;;;;5042062;28;20133;-73
2022/12/18 02:26:05;;;;;;;67.13;26.08;;;-3.70;99.90;;;;;;5047050;28;20045;-73
2022/12/18 02:28:35;;;;;;;69.07;25.58;;;;;;;;;;5029564;28;20041;-74
2022/12/18 02:31:04;;;;;;;71.90;25.45;;;-3.70;99.90;;;;;;5047979;28;20033;-74
2022/12/18 02:33:32;;;;;;;65.43;25.65;;;-2.90;99.90;;;;;;5044994;28;20059;-73
2022/12/18 02:35:59;;;;;;;71.72;26.00;;;-1.80;99.90;;;;;;5022511;28;20102;-73
2022/12/18 02:38:27;;;;;;;69.43;25.38;;;-3.80;99.90;;;;;;5024666;28;20033;-73
2022/12/18 02:40:54;;;;;;;69.35;27.10;;;-3.90;99.90;;;;;;5047044;28;20494;-74
2022/12/18 02:43:19;;;;;;;75.18;27.65;;;-3.40;99.90;;;;;;5028095;28;20048;-73
2022/12/18 02:45:53;;;;;;;76.22;26.67;;;-3.90;99.90;;;;;;5025434;28;20037;-73
2022/12/18 02:48:27;;;;;;;74.15;26.92;;;-3.80;99.90;;;;;;5025221;28;20414;-73
2022/12/18 02:51:13;;;;;;;72.28;27.38;;;-3.90;99.90;;;;;;5027634;28;20075;-73
2022/12/18 02:54:02;;;;;;;67.32;27.27;;;-3.10;99.90;;;;;;5028121;28;20106;-74
2022/12/18 02:56:42;;;;;;;75.15;28.38;;;-3.80;99.90;;;;;;5041986;28;20040;-74
2022/12/18 02:59:15;;;;;;;77.50;27.98;;;-4.00;99.90;;;;;;5005560;28;20033;-73
2022/12/18 03:02:06;;;;;;;73.20;26.92;;;-2.80;99.90;;;;;;5028218;28;20037;-73
2022/12/18 03:04:48;;;;;;;76.75;28.85;;;-3.90;99.90;;;;;;5046802;28;20044;-73
2022/12/18 03:07:20;;;;;;;72.50;27.00;;;-1.80;99.90;;;;;;5008248;28;20129;-74
2022/12/18 03:09:50;;;;;;;79.63;29.58;;;-3.90;99.90;;;;;;5028234;28;20056;-74
2022/12/18 03:12:30;;;;;;;82.95;30.17;;;-4.00;99.90;;;;;;5010350;28;20068;-73
2022/12/18 03:15:08;;;;;;;78.88;28.80;;;-4.00;99.90;;;;;;5011078;28;20124;-74
2022/12/18 03:17:36;;;;;;;74.93;27.95;;;-4.10;99.90;;;;;;5043555;28;20048;-73
2022/12/18 03:20:25;;;;;;;77.22;29.13;;;-4.00;99.90;;;;;;5029502;28;20108;-74
2022/12/18 03:22:57;;;;;;;81.57;30.00;;;-4.10;99.90;;;;;;5045974;28;20041;-73
2022/12/18 03:25:28;;;;;;;78.90;29.85;;;-4.10;99.90;;;;;;5027546;28;20058;-74
2022/12/18 03:27:58;;;;;;;76.65;28.83;;;-4.10;99.90;;;;;;5012998;28;20095;-74
2022/12/18 03:30:26;;;;;;;83.88;30.83;;;-4.10;99.90;;;;;;5011480;28;20051;-74
2022/12/18 03:32:58;;;;;;;78.70;30.58;;;-4.10;99.90;;;;;;5027845;28;20510;-73
2022/12/18 03:35:39;;;;;;;78.55;28.52;;;-3.30;99.90;;;;;;5027510;28;20057;-73
2022/12/18 03:38:06;;;;;;;80.00;27.73;;;-3.20;99.90;;;;;;5024513;28;20029;-74
2022/12/18 03:40:58;;;;;;;84.03;29.48;;;-4.20;99.90;;;;;;5044011;28;20489;-73
2022/12/18 03:43:27;;;;;;;75.50;27.88;;;-4.20;99.90;;;;;;5013311;28;20044;-74
2022/12/18 03:46:07;;;;;;;77.25;30.38;;;-4.20;99.90;;;;;;5043244;28;20417;-74
2022/12/18 03:48:41;;;;;;;71.97;27.95;;;-4.20;99.90;;;;;;5026977;28;20120;-74
2022/12/18 03:51:18;;;;;;;72.70;27.75;;;-4.20;99.90;;;;;;5024373;28;20060;-73
2022/12/18 03:53:49;;;;;;;73.25;27.90;;;-4.20;99.90;;;;;;5010632;28;20125;-74
2022/12/18 03:56:21;;;;;;;76.43;28.55;;;-4.20;99.90;;;;;;5021677;28;20059;-74
2022/12/18 03:58:48;;;;;;;74.93;27.95;;;-3.40;99.90;;;;;;5027102;28;20356;-72
2022/12/18 04:01:16;;;;;;;70.13;27.55;;;-4.30;99.90;;;;;;5028084;28;20041;-73
2022/12/18 04:03:44;;;;;;;78.07;28.58;;;-4.30;99.90;;;;;;5029569;28;20121;-74
2022/12/18 04:06:11;;;;;;;72.78;28.40;;;-4.30;99.90;;;;;;5030845;28;20131;-74
2022/12/18 04:08:39;;;;;;;68.43;26.52;;;-4.30;99.90;;;;;;4992018;28;20130;-73
2022/12/18 04:11:05;;;;;;;73.15;28.30;;;-3.20;99.90;;;;;;5004332;28;20735;-74
2022/12/18 04:13:36;;;;;;;74.30;27.33;;;-4.30;99.90;;;;;;5027426;28;20597;-73
2022/12/18 04:16:02;;;;;;;70.28;25.67;;;-4.60;99.90;;;;;;5005888;28;20044;-72
2022/12/18 04:18:28;;;;;;;62.22;26.23;;;-4.40;99.90;;;;;;4994620;28;20038;-73
2022/12/18 04:20:54;;;;;;;77.50;28.67;;;-4.40;99.90;;;;;;5020212;28;20040;-73
2022/12/18 04:23:20;;;;;;;74.18;27.98;;;-4.50;99.90;;;;;;4984417;28;20148;-73
2022/12/18 04:25:47;;;;;;;74.05;27.58;;;-3.40;99.90;;;;;;5026713;28;20402;-73
2022/12/18 04:28:16;;;;;;;70.10;27.52;;;-4.50;99.90;;;;;;5002345;28;20041;-73
2022/12/18 04:30:44;;;;;;;72.22;27.60;;;-4.50;99.90;;;;;;5006656;28;20132;-74
2022/12/18 04:33:11;;;;;;;66.10;25.80;;;-4.50;99.90;;;;;;4984305;28;21022;-73
2022/12/18 04:35:37;;;;;;;71.43;27.23;;;-3.20;99.90;;;;;;5025871;28;20091;-73
2022/12/18 04:38:03;;;;;;;70.38;27.17;;;-4.50;99.90;;;;;;5026313;28;20079;-73
2022/12/18 04:40:28;;;;;;;66.63;27.05;;;-3.80;99.90;;;;;;5043009;28;20037;-72
2022/12/18 04:42:54;;;;;;;69.47;26.55;;;-3.30;99.90;;;;;;5026700;28;20041;-73
2022/12/18 04:45:20;;;;;;;65.70;26.90;;;-4.20;99.90;;;;;;5027876;28;20044;-73
2022/12/18 04:47:45;;;;;;;65.63;25.92;;;-3.70;99.90;;;;;;4997032;28;20037;-73
2022/12/18 04:50:11;;;;;;;71.38;27.55;;;-4.50;99.90;;;;;;5031045;28;20090;-73
2022/12/18 04:52:37;;;;;;;74.18;25.92;;;-4.50;99.90;;;;;;5006761;28;20941;-73
2022/12/18 04:55:03;;;;;;;67.25;27.23;;;-4.50;99.90;;;;;;4992321;28;20029;-73
2022/12/18 04:57:29;;;;;;;73.38;26.95;;;-4.50;99.90;;;;;;5010463;28;20045;-73
2022/12/18 04:59:55;;;;;;;68.25;26.42;;;-4.60;99.90;;;;;;5042808;28;20072;-73
2022/12/18 05:02:20;;;;;;;58.45;23.80;;;-5.80;99.90;;;;;;5029413;28;20060;-75
2022/12/18 05:04:46;;;;;;;60.00;24.58;;;-3.50;99.90;;;;;;5026888;28;20588;-73
2022/12/18 05:07:12;;;;;;;67.60;25.02;;;-4.60;99.90;;;;;;5028293;28;20055;-73
2022/12/18 05:09:38;;;;;;;65.85;26.33;;;-4.60;99.90;;;;;;5028354;28;20512;-73
2022/12/18 05:12:03;;;;;;;59.47;25.00;;;-2.30;99.90;;;;;;5014065;28;20087;-73
2022/12/18 05:14:29;;;;;;;62.47;25.95;;;-4.60;99.90;;;;;;5008543;28;20064;-74
2022/12/18 05:16:58;;;;;;;58.65;25.83;;;-4.70;99.90;;;;;;5048200;28;20039;-72
2022/12/18 05:19:23;;;;;;;62.67;24.73;;;-4.20;99.90;;;;;;5027665;28;20040;-73
2022/12/18 05:21:49;;;;;;;62.75;24.63;;;-4.70;99.90;;;;;;5051736;28;20040;-73
2022/12/18 05:24:15;;;;;;;61.05;25.15;;;-4.70;99.90;;;;;;5027663;28;20090;-73
2022/12/18 05:26:41;;;;;;;60.42;24.02;;;-5.50;99.90;;;;;;5015186;28;20066;-73
2022/12/18 05:29:06;;;;;;;62.08;24.85;;;-4.70;99.90;;;;;;5008881;28;20110;-74
2022/12/18 05:31:32;;;;;;;56.05;24.10;;;-4.70;99.90;;;;;;5014180;28;20069;-72
2022/12/18 05:33:58;;;;;;;60.13;23.60;;;-4.80;99.90;;;;;;5042744;28;20207;-73
2022/12/18 05:36:24;;;;;;;57.08;25.08;;;-3.50;99.90;;;;;;5002388;28;20041;-72
2022/12/18 05:38:49;;;;;;;53.30;23.48;;;-4.60;99.90;;;;;;5000605;28;20112;-72
2022/12/18 05:41:15;;;;;;;58.45;23.52;;;-4.80;99.90;;;;;;4997745;28;20043;-73
2022/12/18 05:43:44;;;;;;;57.00;24.25;;;-4.80;99.90;;;;;;5045758;28;20045;-73
2022/12/18 05:46:16;;;;;;;55.28;24.05;;;-4.90;99.90;;;;;;5044135;28;20095;-73
2022/12/18 05:48:45;;;;;;;58.28;22.73;;;-4.40;99.90;;;;;;5010208;28;20047;-74
2022/12/18 05:51:14;;;;;;;56.05;21.80;;;-4.90;99.90;;;;;;5028435;28;20033;-73
2022/12/18 05:53:40;;;;;;;53.00;21.52;;;-4.90;99.90;;;;;;5029216;28;20495;-73
2022/12/18 05:56:09;;;;;;;49.05;22.40;;;-4.90;99.90;;;;;;5025878;28;20631;-73
2022/12/18 05:58:36;;;;;;;50.28;23.15;;;-5.00;99.90;;;;;;5012596;28;20430;-73
2022/12/18 06:01:16;;;;;;;50.03;22.02;;;-5.00;99.90;;;;;;5024660;28;20059;-73
2022/12/18 06:03:42;;;;;;;51.17;21.33;;;-5.00;99.90;;;;;;5010387;28;20041;-72
2022/12/18 06:06:14;;;;;;;48.72;20.60;;;;;;;;;;4997011;28;20513;-72
2022/12/18 06:08:40;;;;;;;48.25;20.30;;;-5.00;99.90;;;;;;5029247;28;20033;-73
2022/12/18 06:11:06;;;;;;;47.15;20.45;;;-4.20;99.90;;;;;;5011045;28;20894;-73
2022/12/18 06:13:32;;;;;;;51.42;21.60;;;-4.90;99.90;;;;;;5012256;28;20107;-73
2022/12/18 06:15:58;;;;;;;44.63;19.73;;;-4.90;99.90;;;;;;5025438;28;20045;-73
2022/12/18 06:18:29;;;;;;;47.63;19.65;;;-4.90;99.90;;;;;;4994681;28;20033;-74
2022/12/18 06:20:56;;;;;;;48.22;19.52;;;-4.60;99.90;;;;;;5009298;28;20055;-73
2022/12/18 06:23:23;;;;;;;43.25;18.95;;;-4.90;99.90;;;;;;5023157;28;20039;-73
2022/12/18 06:25:49;;;;;;;47.10;19.88;;;-4.30;99.90;;;;;;5011414;28;20055;-72
2022/12/18 06:28:14;;;;;;;48.90;20.05;;;-4.80;99.90;;;;;;5027814;28;20491;-73
2022/12/18 06:30:42;;;;;;;42.10;19.63;;;-4.90;99.90;;;;;;5024715;28;20059;-73
2022/12/18 06:33:08;;;;;;;44.53;20.15;;;-4.30;99.90;;;;;;5028923;28;20040;-73
2022/12/18 06:35:34;;;;;;;47.63;19.63;;;-4.90;99.90;;;;;;5006400;28;20421;-72
2022/12/18 06:38:02;;;;;;;42.53;19.00;;;-4.90;99.90;;;;;;5046615;28;20036;-72
2022/12/18 06:40:28;;;;;;;39.88;18.52;;;-4.90;99.90;;;;;;5007056;28;20052;-73
2022/12/18 06:42:57;;;;;;;43.28;18.85;;;-4.90;99.90;;;;;;5025761;28;20041;-73
2022/12/18 06:45:26;;;;;;;42.13;18.17;;;-5.00;99.90;;;;;;5011891;28;20036;-73
2022/12/18 06:47:52;;;;;;;39.38;18.02;;;-3.40;99.90;;;;;;5025920;28;20116;-72
2022/12/18 06:50:18;;;;;;;40.47;18.25;;;-5.00;99.90;;;;;;5013531;28;20578;-73
2022/12/18 06:52:43;;;;;;;41.92;18.67;;;-5.20;99.90;;;;;;5026844;28;20572;-71
2022/12/18 06:55:11;;;;;;;41.17;19.02;;;-5.00;99.90;;;;;;5023137;28;20116;-72
2022/12/18 06:57:40;;;;;;;37.35;18.65;;;-4.50;99.90;;;;;;5025852;28;20437;-75
2022/12/18 07:00:09;;;;;;;41.30;17.92;;;-2.80;99.90;;;;;;5043897;28;20094;-73
2022/12/18 07:02:35;;;;;;;44.50;18.58;;;-5.10;99.90;;;;;;4991555;28;20667;-73
2022/12/18 07:05:01;;;;;;;35.63;17.65;;;-5.10;99.90;;;;;;5029139;28;20033;-73
2022/12/18 07:07:27;;;;;;;34.25;16.55;;;-5.20;99.90;;;;;;5030323;28;20048;-72
2022/12/18 07:09:55;;;;;;;35.83;17.27;;;-5.20;99.90;;;;;;4995189;28;20045;-75
2022/12/18 07:12:21;;;;;;;39.15;16.70;;;-5.40;99.90;;;;;;5043120;28;20031;-72
2022/12/18 07:14:47;;;;;;;38.42;17.30;;;-4.40;99.90;;;;;;5025670;28;20044;-73
2022/12/18 07:17:13;;;;;;;38.03;17.42;;;;;;;;;;4979401;28;20139;-73
2022/12/18 07:19:39;;;;;;;41.50;19.00;;;-5.20;99.90;;;;;;5025216;28;20040;-74
2022/12/18 07:22:05;;;;;;;42.90;18.92;;;;;;;;;;5024664;28;20624;-72
2022/12/18 07:24:33;;;;;;;36.20;16.85;;;-5.30;99.90;;;;;;5024027;28;20052;-71
2022/12/18 07:26:59;;;;;;;38.55;17.15;;;-5.30;99.90;;;;;;5010393;28;20079;-73
2022/12/18 07:29:24;;;;;;;37.58;18.65;;;-5.20;99.90;;;;;;5025442;28;20072;-72
2022/12/18 07:31:53;;;;;;;40.90;18.42;;;-5.30;99.90;;;;;;4991871;28;20120;-73
2022/12/18 07:34:19;;;;;;;36.70;18.08;;;-5.40;99.90;;;;;;4993042;28;20073;-73
2022/12/18 07:36:48;;;;;;;35.05;17.45;;;-4.50;99.90;;;;;;4990859;28;20072;-73
2022/12/18 07:39:14;;;;;;;40.55;18.40;;;-5.40;99.90;;;;;;5025815;28;20030;-73
2022/12/18 07:41:45;;;;;;;36.13;16.95;;;-5.30;99.90;;;;;;5004655;28;20050;-73
2022/12/18 07:44:12;;;;;;;36.63;18.08;;;-5.30;99.90;;;;;;5010305;28;21223;-73
2022/12/18 07:46:38;;;;;;;34.70;16.33;;;-4.90;99.90;;;;;;5023467;28;20095;-72
2022/12/18 07:49:04;;;;;;;36.47;16.98;;;-5.30;99.90;;;;;;5022475;28;20037;-73
2022/12/18 07:51:30;;;;;;;35.63;17.55;;;-5.40;99.90;;;;;;4998744;28;20041;-72
2022/12/18 07:53:57;;;;;;;33.63;17.60;;;-4.20;99.90;;;;;;5001585;28;20042;-73
2022/12/18 07:56:25;;;;;;;36.53;17.50;;;-5.40;99.90;;;;;;5016040;28;20033;-73
2022/12/18 07:58:51;;;;;;;30.10;15.52;;;-5.30;99.90;;;;;;5020008;28;20065;-71
2022/12/18 08:01:17;;;;;;;35.15;16.05;;;-3.80;99.90;;;;;;5000344;28;21655;-71
2022/12/18 08:03:42;;;;;;;35.25;16.40;;;-4.40;99.90;;;;;;5019857;28;20053;-73
2022/12/18 08:06:11;;;;;;;33.47;15.90;;;-5.20;99.90;;;;;;4987896;28;20061;-73
2022/12/18 08:08:41;;;;;;;34.45;16.45;;;-5.30;99.90;;;;;;5021617;28;20402;-72
2022/12/18 08:11:07;;;;;;;32.75;16.60;;;-5.30;99.90;;;;;;4997203;28;20068;-72
2022/12/18 08:13:33;;;;;;;33.55;16.85;;;-5.10;99.90;;;;;;5008363;28;20034;-73
2022/12/18 08:16:00;;;;;;;32.88;15.98;;;;;;;;;;4999674;28;20045;-73
2022/12/18 08:18:31;;;;;;;30.15;16.05;;;-5.10;99.90;;;;;;5021133;28;20034;-72
2022/12/18 08:20:57;;;;;;;31.15;16.75;;;-5.00;99.90;;;;;;5006083;28;20085;-72
2022/12/18 08:23:25;;;;;;;32.72;16.52;;;-5.00;99.90;;;;;;5019332;28;20427;-73
2022/12/18 08:25:51;;;;;;;33.70;16.63;;;-7.20;99.90;;;;;;4987707;28;20046;-73
2022/12/18 08:28:17;;;;;;;30.27;15.38;;;-7.80;99.90;;;;;;4991885;28;20060;-72
2022/12/18 08:30:45;;;;;;;35.92;17.13;;;-5.00;99.90;;;;;;5020192;28;20130;-74
2022/12/18 08:33:11;;;;;;;33.15;16.38;;;-4.90;99.90;;;;;;5006398;28;20034;-73
2022/12/18 08:35:37;;;;;;;29.42;15.27;;;-5.10;99.90;;;;;;5020896;28;20081;-74
2022/12/18 08:38:03;;;;;;;33.53;16.95;;;-4.90;99.90;;;;;;5006087;28;20768;-72
2022/12/18 08:40:32;;;;;;;36.45;17.20;;;-4.90;99.90;;;;;;4986485;28;20117;-74
2022/12/18 08:45:45;;;;;;;35.70;18.15;;;-5.10;99.90;;;;;;5022128;28;20051;-72
2022/12/18 08:48:11;;;;;;;31.70;16.77;;;;;;;;;;5022615;28;20049;-73
2022/12/18 08:50:37;;;;;;;33.97;16.90;;;-4.70;99.90;;;;;;4998734;28;20038;-73
2022/12/18 08:53:02;;;;;;;31.17;15.73;;;-4.70;99.90;;;;;;5020624;28;20045;-73
2022/12/18 08:55:31;;;;;;;29.60;15.30;;;-3.60;99.90;;;;;;4973588;28;20038;-72
2022/12/18 08:57:57;;;;;;;32.70;15.45;;;-4.60;99.90;;;;;;4988578;28;20121;-74
2022/12/18 09:00:23;;;;;;;29.00;15.13;;;-2.70;99.90;;;;;;5020868;28;20566;-73
2022/12/18 09:02:51;;;;;;;28.63;15.38;;;-3.70;99.90;;;;;;4992124;28;20041;-73
2022/12/18 09:05:17;;;;;;;30.75;15.32;;;-4.60;99.90;;;;;;5006770;28;20049;-72
2022/12/18 09:07:43;;;;;;;30.10;15.55;;;;;;;;;;5023617;28;20046;-72
2022/12/18 09:10:09;;;;;;;29.58;15.70;;;-4.40;99.90;;;;;;4991568;28;20045;-75
2022/12/18 09:12:35;;;;;;;27.33;14.45;;;-4.30;99.90;;;;;;5022424;28;20042;-74
2022/12/18 09:15:01;;;;;;;29.35;15.00;;;-4.40;99.90;;;;;;5023761;28;20071;-72
2022/12/18 09:17:30;;;;;;;26.92;14.48;;;-1.70;99.90;;;;;;5023315;28;20249;-73
2022/12/18 09:19:55;;;;;;;29.35;13.70;;;-3.40;99.90;;;;;;4992740;28;20137;-72
2022/12/18 09:22:21;;;;;;;27.98;13.63;;;-3.60;99.90;;;;;;5018864;28;20400;-73
2022/12/18 09:24:48;;;;;;;24.63;13.23;;;-4.00;99.90;;;;;;5005612;28;20063;-73
2022/12/18 09:27:14;;;;;;;25.92;13.60;;;-3.60;99.90;;;;;;5004192;28;20484;-73
2022/12/18 09:29:43;;;;;;;25.90;14.27;;;-2.10;99.90;;;;;;5008150;28;20052;-73
2022/12/18 09:32:17;;;;;;;25.15;12.85;;;-3.80;99.90;;;;;;4977099;28;20132;-74
2022/12/18 09:34:46;;;;;;;28.23;14.30;;;-3.40;99.90;;;;;;5035192;28;20532;-72
2022/12/18 09:37:11;;;;;;;27.00;12.82;;;-3.00;99.90;;;;;;5007525;28;20048;-71
2022/12/18 09:39:38;;;;;;;25.33;12.80;;;-3.10;99.90;;;;;;5010966;28;20116;-73
2022/12/18 09:42:04;;;;;;;27.08;13.50;;;-3.70;99.90;;;;;;5018518;28;20577;-74
2022/12/18 09:44:35;;;;;;;22.20;11.27;;;-3.50;99.90;;;;;;5022605;28;20036;-72
2022/12/18 09:47:18;;;;;;;24.58;12.38;;;-3.50;99.90;;;;;;5024660;28;20045;-73
2022/12/18 09:49:50;;;;;;;22.38;11.35;;;-2.50;99.90;;;;;;5040175;28;20048;-72
2022/12/18 09:52:39;;;;;;;23.88;11.07;;;-3.40;99.90;;;;;;4989429;28;20454;-73
2022/12/18 09:55:38;;;;;;;22.48;11.60;;;-3.40;99.90;;;;;;5018704;28;20044;-75
2022/12/18 09:58:22;;;;;;;20.70;11.38;;;-3.30;99.90;;;;;;5002754;28;20033;-73
2022/12/18 10:00:55;;;;;;;21.85;10.70;;;-3.30;99.90;;;;;;5020956;28;20037;-74
2022/12/18 10:03:21;;;;;;;22.40;11.55;;;-3.30;99.90;;;;;;5060831;28;20048;-74
2022/12/18 10:05:59;;;;;;;21.55;11.27;;;-3.30;99.90;;;;;;5032573;28;20045;-73
2022/12/18 10:08:40;;;;;;;21.60;10.70;;;-2.70;99.90;;;;;;5034258;28;20041;-73
2022/12/18 10:11:40;;;;;;;20.00;10.15;;;-2.40;99.90;;;;;;5015553;28;20538;-72
2022/12/18 10:14:32;;;;;;;20.48;9.63;;;-3.10;99.90;;;;;;5047175;28;20101;-73
2022/12/18 10:17:36;;;;;;;19.38;9.40;;;-3.10;99.90;;;;;;5034424;28;20033;-73
2022/12/18 10:20:15;;;;;;;18.48;9.52;;;-2.90;99.90;;;;;;4935794;28;20045;-73
2022/12/18 10:23:12;;;;;;;17.02;9.25;;;-2.90;99.90;;;;;;5007092;28;20049;-73
2022/12/18 10:26:03;;;;;;;19.00;9.40;;;-2.80;99.90;;;;;;5069917;28;20041;-73
2022/12/18 10:28:31;;;;;;;17.13;8.75;;;-0.80;99.90;;;;;;5047810;28;20127;-73
2022/12/18 10:30:59;;;;;;;18.45;9.02;;;-2.50;99.90;;;;;;5053290;28;20415;-73
2022/12/18 10:33:29;;;;;;;19.23;9.50;;;-2.40;99.90;;;;;;5016673;28;20048;-73
2022/12/18 10:36:01;;;;;;;17.00;8.68;;;-1.90;99.90;;;;;;5049876;28;20132;-72
2022/12/18 10:38:29;;;;;;;17.63;8.43;;;-2.30;99.90;;;;;;5004023;28;20061;-73
2022/12/18 10:41:03;;;;;;;16.80;8.82;;;-2.30;99.90;;;;;;5035681;28;20209;-72
2022/12/18 10:43:34;;;;;;;15.68;8.20;;;;;;;;;;5012514;28;20045;-74
2022/12/18 10:46:08;;;;;;;17.60;8.80;;;-2.30;99.90;;;;;;5028786;28;20087;-75
2022/12/18 10:48:40;;;;;;;17.42;8.05;;;-2.30;99.90;;;;;;5050998;28;20041;-71
2022/12/18 10:51:07;;;;;;;16.75;8.23;;;-1.30;99.90;;;;;;5022926;28;20049;-73
2022/12/18 10:53:35;;;;;;;16.90;8.73;;;-2.00;99.90;;;;;;5047827;28;20048;-72
2022/12/18 10:56:04;;;;;;;17.10;8.48;;;-2.50;99.90;;;;;;5045233;28;20515;-73
2022/12/18 10:58:38;;;;;;;15.85;8.32;;;-2.30;99.90;;;;;;5033194;28;20087;-73
2022/12/18 11:01:11;;;;;;;16.98;8.30;;;-2.20;99.90;;;;;;5001795;28;20503;-73
2022/12/18 11:03:41;;;;;;;16.40;8.63;;;-2.30;99.90;;;;;;5016281;28;20098;-73
2022/12/18 11:06:21;;;;;;;17.02;8.68;;;-2.20;99.90;;;;;;5015168;28;20071;-72
2022/12/18 11:09:20;;;;;;;15.57;7.95;;;-2.30;99.90;;;;;;5053050;28;20094;-73
2022/12/18 11:11:54;;;;;;;16.02;8.18;;;-2.10;99.90;;;;;;4988906;28;20053;-72
2022/12/18 11:14:43;;;;;;;16.30;7.63;;;-2.10;99.90;;;;;;5018011;28;20048;-73
2022/12/18 11:17:21;;;;;;;16.50;8.00;;;-2.20;99.90;;;;;;4996077;28;20045;-74
2022/12/18 11:19:57;;;;;;;13.70;7.10;;;-1.80;99.90;;;;;;5022688;28;20106;-73
2022/12/18 11:22:28;;;;;;;14.13;7.55;;;-2.70;99.90;;;;;;5012792;28;20036;-72
2022/12/18 11:25:17;;;;;;;16.58;7.68;;;-2.00;99.90;;;;;;5022656;28;20805;-74
2022/12/18 11:27:50;;;;;;;12.43;6.97;;;-2.00;99.90;;;;;;4999057;28;20056;-72
2022/12/18 11:30:24;;;;;;;13.27;6.60;;;-1.30;99.90;;;;;;5026252;28;20051;-73
2022/12/18 11:32:52;;;;;;;13.40;6.78;;;-2.00;99.90;;;;;;5023064;28;20052;-74
2022/12/18 11:35:23;;;;;;;14.52;7.00;;;-1.90;99.90;;;;;;5019198;28;20114;-74
2022/12/18 11:38:17;;;;;;;13.77;7.18;;;-1.90;99.90;;;;;;5011847;28;20051;-74
2022/12/18 11:40:52;;;;;;;15.10;7.25;;;-1.80;99.90;;;;;;5022995;28;20051;-73
2022/12/18 11:43:45;;;;;;;12.75;6.47;;;-1.00;99.90;;;;;;5025416;28;20036;-73
2022/12/18 11:46:37;;;;;;;13.88;7.22;;;-1.70;99.90;;;;;;5024353;28;20171;-73
2022/12/18 11:49:36;;;;;;;13.18;6.25;;;-1.90;99.90;;;;;;5024406;28;20060;-73
2022/12/18 11:52:16;;;;;;;16.35;6.05;;;;;;;;;;5038679;28;20554;-73
2022/12/18 11:54:42;;;;;;;13.15;6.45;;;-1.60;99.90;;;;;;5005132;28;20037;-73
2022/12/18 11:57:16;;;;;;;12.55;6.10;;;-1.70;99.90;;;;;;5006545;28;20395;-73
2022/12/18 12:00:01;;;;;;;13.13;6.07;;;-1.60;99.90;;;;;;5003811;28;20403;-73
2022/12/18 12:03:26;;;;;;;13.55;6.15;;;-1.60;99.90;;;;;;5004709;28;20072;-72
2022/12/18 12:06:05;;;;;;;13.48;5.90;;;-1.60;99.90;;;;;;4934112;28;20435;-73
2022/12/18 12:09:06;;;;;;;12.50;5.90;;;-1.50;99.90;;;;;;5026083;28;20059;-74
2022/12/18 12:11:55;;;;;;;12.60;5.78;;;-1.60;99.90;;;;;;5022973;28;20583;-73
2022/12/18 12:15:06;;;;;;;15.07;6.10;;;-1.50;99.90;;;;;;5023677;28;20369;-72
2022/12/18 12:17:55;;;;;;;12.15;5.80;;;-1.50;99.90;;;;;;4970045;28;20053;-74
2022/12/18 12:20:52;;;;;;;12.30;5.70;;;-0.90;99.90;;;;;;5038019;28;20041;-73
2022/12/18 12:23:39;;;;;;;15.27;5.78;;;-1.20;99.90;;;;;;5020843;28;20039;-74
2022/12/18 12:26:24;;;;;;;13.07;6.18;;;-1.30;99.90;;;;;;5006683;28;20264;-73
2022/12/18 12:28:58;;;;;;;13.20;6.35;;;-1.30;99.90;;;;;;5039184;28;20059;-73
2022/12/18 12:31:33;;;;;;;14.77;6.93;;;-1.30;99.90;;;;;;5023349;28;20111;-73
2022/12/18 12:34:19;;;;;;;14.90;7.07;;;-1.30;99.90;;;;;;5021175;28;20106;-73
2022/12/18 12:36:59;;;;;;;14.43;6.97;;;-1.30;99.90;;;;;;5039280;28;20060;-73
2022/12/18 12:39:32;;;;;;;16.40;7.00;;;-1.20;99.90;;;;;;5037050;28;20045;-73
2022/12/18 12:44:48;;;;;;;14.38;6.40;;;-1.20;99.90;;;;;;5024209;28;20080;-73
2022/12/18 12:47:22;;;;;;;14.02;6.63;;;-1.20;99.90;;;;;;5022446;28;20037;-73
2022/12/18 12:49:52;;;;;;;14.27;6.55;;;-1.20;99.90;;;;;;5024393;28;20048;-73
2022/12/18 12:52:37;;;;;;;14.63;6.55;;;-0.40;99.90;;;;;;5009433;28;20052;-71
2022/12/18 12:55:15;;;;;;;12.82;6.63;;;-1.10;99.90;;;;;;5020348;28;20041;-73
2022/12/18 12:58:00;;;;;;;12.98;6.00;;;-1.10;99.90;;;;;;5022362;28;20045;-76
2022/12/18 13:00:30;;;;;;;14.80;6.55;;;-0.80;99.90;;;;;;5002342;28;20069;-74